Startpagina
METAR-TAF:

METAR-TAF

Vliegvelden :

Vliegbasis Koksijde

Koksijde, België

breedte: 51-05N, lengte: 002-39E, hoogte: 4 m

Actueel weer

Dit bericht is 23 minuten geleden gemaakt, om 02:07 UTC
Wind 1 kt uit variabele richting
Temperatuur 8°C
Vochtigheid 100%
Druk 1022 hPa
Zicht: 9000 m

METAR: EBFN 240207Z AUTO VRB01KT 9000 SCT022/// SCT030/// 08/08 Q1022 WHT

Tijdstip: 04:30 (02:30 UTC)

Verwachting

Dit bericht is 14 uur en het 49 minuten geleden gemaakt, om 11:41 UTC
Verwachting geldig van 23 om 13 UTC tot 23 om 22 UTC
Wind 12 kt uit het noordnoordoosten met uitschieters tot 22 kt
Zicht 10 km of meer
Weinig wolken op 2500 ft
Verspreide wolken op 4000 ft

TAF: EBFN 231141Z 2313/2322 02012G22KT 9999 FEW025 SCT040

Waarnemingen en weersverwachtingen van meer dan 4000 vliegvelden (METAR en TAF).

De beschikbare stations zijn de gele en rode punten op de kaart.

Ga met uw muis naar het station om de naam te zien.

Klik dan om waarnemingen en weersverwachtingen te zien.

kaart wijzigen: klik op de groene knoppen met een zwart kruis om in te zoomen, op de groene knop met een streepje om uit te zoomen of op de groene pijlen voor aangrenzende kaarten.


METAR-TAF: